Allin, Illinois
Current Conditions -  °F | °C
As of 5:56 PM on Saturday 20 Dec 2014 (Local Time) from KBMI Reporting Station
Overcast Overcast  
Wind Chill: -3°   Ceiling: 3800
Heat Index:   Visibility: 7mi
Dew Point: -1°   Wind: 6mph
Humidity: 92%   Direction: 160°SSE
Pressure: 30.26"   Gusts: NA
Location:  40.4427°N, 89.2086°W
Report Text: KBMI 202356Z 16005KT 7SM OVC038 00/M01 A3026 RMK AO2 51008 T00001011 10011 21016 SLP266
Loading
Personal Weather Stations






























Interactive Weather Map New forecast layout! Learn more

10-Day Weather Forecast

Advertisements
Track Severe Weather on mobile